Time;durP1;ratioP1;P1;durP2;ratioP2;P2;SDS_P1;SDS_P2;PMS_P1;PMS_P2;Temp;Humidity;BMP_temperature;BMP_pressure;BME280_temperature;BME280_humidity;BME280_pressure;Samples;Min_cycle;Max_cycle;Signal;HPM_P1;HPM_P2
2022/06/07 00:00:12;;;;;;;40.38;26.83;;;;;;;11.74;100.00;101205.13;5046201;28;20054;-68
2022/06/07 00:02:38;;;;;;;40.17;26.35;;;;;;;11.76;100.00;101205.13;5043690;28;20043;-68
2022/06/07 00:05:04;;;;;;;38.97;27.10;;;;;;;11.77;100.00;101199.84;5045089;28;20025;-67
2022/06/07 00:07:29;;;;;;;39.90;26.27;;;;;;;11.80;100.00;101194.56;5044788;28;20051;-67
2022/06/07 00:09:56;;;;;;;39.70;26.38;;;;;;;11.83;100.00;101199.88;5043271;28;20102;-67
2022/06/07 00:12:22;;;;;;;37.42;26.10;;;;;;;11.83;100.00;101199.88;5046124;28;20032;-68
2022/06/07 00:14:48;;;;;;;37.78;26.10;;;;;;;11.86;100.00;101199.88;5042572;28;20030;-67
2022/06/07 00:17:13;;;;;;;39.33;25.60;;;;;;;11.88;100.00;101191.06;5045952;28;20112;-65
2022/06/07 00:19:40;;;;;;;41.15;27.58;;;;;;;11.86;100.00;101191.06;5043509;28;20151;-63
2022/06/07 00:22:06;;;;;;;41.00;26.67;;;;;;;11.86;100.00;101191.94;5044574;28;20464;-64
2022/06/07 00:24:32;;;;;;;41.38;27.92;;;;;;;11.87;100.00;101182.25;5044143;28;20057;-66
2022/06/07 00:26:58;;;;;;;41.47;28.00;;;;;;;11.90;100.00;101190.19;5043944;28;20053;-64
2022/06/07 00:29:25;;;;;;;41.45;28.55;;;;;;;11.90;100.00;101178.69;5045110;28;20122;-65
2022/06/07 00:31:50;;;;;;;41.83;28.23;;;;;;;11.90;100.00;101178.69;5042462;28;20021;-64
2022/06/07 00:34:16;;;;;;;41.13;27.23;;;;;;;11.90;100.00;101176.03;5045831;28;20032;-64
2022/06/07 00:36:42;;;;;;;45.17;28.58;;;;;;;11.90;100.00;101174.31;5042837;28;20036;-65
2022/06/07 00:39:09;;;;;;;40.30;27.92;;;;;;;11.93;100.00;101173.44;5044517;28;20464;-65
2022/06/07 00:41:34;;;;;;;42.05;28.52;;;;;;;11.94;100.00;101162.88;5043466;28;20035;-64
2022/06/07 00:44:21;;;;;;;41.55;27.90;;;;;;;11.95;100.00;101166.41;5043655;28;20029;-65
2022/06/07 00:46:48;;;;;;;39.80;26.38;;;;;;;11.92;100.00;101166.38;5038104;28;20029;-65
2022/06/07 00:49:18;;;;;;;39.03;26.25;;;;;;;11.89;100.00;101163.72;5045466;28;20372;-65
2022/06/07 00:51:45;;;;;;;39.60;25.90;;;;;;;11.84;100.00;101159.25;5042465;28;20040;-62
2022/06/07 00:54:10;;;;;;;35.78;24.95;;;;;;;11.75;100.00;101161.88;5044774;28;20045;-64
2022/06/07 00:56:36;;;;;;;38.03;26.38;;;;;;;11.72;100.00;101151.25;5043169;28;20025;-65
2022/06/07 00:59:03;;;;;;;36.53;24.70;;;;;;;11.70;100.00;101145.06;5043712;28;20388;-64
2022/06/07 01:01:30;;;;;;;37.00;24.77;;;;;;;11.68;100.00;101157.44;5044152;28;20422;-64
2022/06/07 01:03:56;;;;;;;36.92;25.48;;;;;;;11.73;100.00;101145.09;5042665;28;20037;-65
2022/06/07 01:11:50;;;;;;;35.00;23.02;;;;;;;11.79;100.00;101144.22;5038621;28;20106;-65
2022/06/07 01:14:15;;;;;;;36.42;23.40;;;;;;;11.80;100.00;101138.94;5045089;28;20025;-65
2022/06/07 01:16:41;;;;;;;34.58;22.35;;;;;;;11.81;100.00;101139.81;5042359;28;20576;-67
2022/06/07 01:19:06;;;;;;;32.47;21.25;;;;;;;11.83;100.00;101152.19;5043887;28;20060;-66
2022/06/07 01:21:34;;;;;;;32.83;21.48;;;;;;;11.82;100.00;101142.50;5042256;28;20045;-66
2022/06/07 01:23:59;;;;;;;33.47;21.35;;;;;;;11.79;100.00;101141.59;5042499;28;20028;-67
2022/06/07 01:26:25;;;;;;;31.42;20.00;;;;;;;11.80;100.00;101143.38;5044252;28;20033;-68
2022/06/07 01:28:50;;;;;;;29.98;18.65;;;;;;;11.78;100.00;101131.84;5041539;28;20595;-66
2022/06/07 01:31:16;;;;;;;31.17;19.35;;;;;;;11.82;100.00;101138.94;5044756;28;20017;-67
2022/06/07 01:33:41;;;;;;;31.27;18.38;;;;;;;11.79;100.00;101131.84;5041825;28;20087;-68
2022/06/07 01:36:11;;;;;;;28.98;18.33;;;;;;;11.80;100.00;101138.94;5043172;28;20033;-68
2022/06/07 01:38:38;;;;;;;28.55;17.48;;;;;;;11.79;100.00;101134.50;5042245;28;20507;-65
2022/06/07 01:43:49;;;;;;;29.88;18.35;;;;;;;11.73;100.00;101133.63;5041549;28;20044;-67
2022/06/07 01:46:15;;;;;;;29.95;18.10;;;;;;;11.71;100.00;101130.06;5044615;28;20024;-67
2022/06/07 01:48:41;;;;;;;29.45;17.75;;;;;;;11.68;100.00;101131.84;5041702;28;20457;-67
2022/06/07 01:51:07;;;;;;;29.50;17.60;;;;;;;11.65;100.00;101121.22;5043278;28;20053;-67
2022/06/07 01:53:34;;;;;;;29.38;17.35;;;;;;;11.65;100.00;101123.00;5042143;28;20021;-67
2022/06/07 01:56:27;;;;;;;26.30;15.75;;;;;;;11.65;100.00;101125.66;5042283;28;20108;-66
2022/06/07 01:58:52;;;;;;;25.98;15.13;;;;;;;11.67;100.00;101115.94;5037565;28;20033;-66
2022/06/07 02:01:18;;;;;;;27.02;15.02;;;;;;;11.67;100.00;101116.81;5044352;28;20025;-67
2022/06/07 02:03:43;;;;;;;26.60;14.32;;;;;;;11.65;100.00;101115.06;5041476;28;20017;-68
2022/06/07 02:06:11;;;;;;;25.77;14.40;;;;;;;11.65;100.00;101118.59;5043241;28;20488;-68
2022/06/07 02:08:37;;;;;;;26.90;14.38;;;;;;;11.63;100.00;101116.78;5042236;28;20025;-67
2022/06/07 02:11:32;;;;;;;24.38;13.65;;;;;;;11.59;100.00;101113.28;5042300;28;20021;-62
2022/06/07 02:13:58;;;;;;;25.40;13.50;;;;;;;11.62;100.00;101107.06;5038690;28;20045;-62
2022/06/07 02:16:23;;;;;;;25.42;13.48;;;;;;;11.62;100.00;101115.94;5043897;28;20029;-62
2022/06/07 02:18:49;;;;;;;24.73;12.95;;;;;;;11.60;100.00;101109.72;5041177;28;20079;-65
2022/06/07 02:21:16;;;;;;;23.77;12.95;;;;;;;11.56;100.00;101102.63;5044110;28;20025;-62
2022/06/07 02:23:42;;;;;;;23.80;12.85;;;;;;;11.54;100.00;101112.34;5041280;28;20030;-65
2022/06/07 02:26:17;;;;;;;24.00;12.43;;;;;;;11.52;100.00;101104.41;5043033;28;20072;-62
2022/06/07 02:28:47;;;;;;;25.15;12.13;;;;;;;11.50;100.00;101108.81;5041509;28;20103;-63
2022/06/07 02:31:14;;;;;;;23.52;11.88;;;;;;;11.52;100.00;101108.81;5043521;28;20033;-62
2022/06/07 02:33:40;;;;;;;24.00;12.20;;;;;;;11.50;100.00;101103.53;5041441;28;20040;-64
2022/06/07 02:36:07;;;;;;;23.20;11.77;;;;;;;11.50;100.00;101100.88;5041320;28;20396;-64
2022/06/07 02:38:33;;;;;;;23.38;11.50;;;;;;;11.46;100.00;101098.19;5042327;28;20044;-65
2022/06/07 02:41:01;;;;;;;22.60;11.50;;;;;;;11.45;100.00;101097.31;5041255;28;20465;-64
2022/06/07 02:43:27;;;;;;;22.98;10.43;;;;;;;11.45;100.00;101097.31;5043586;28;20391;-63
2022/06/07 02:45:52;;;;;;;22.13;10.65;;;;;;;11.43;100.00;101088.47;5040443;28;20112;-63
2022/06/07 02:48:17;;;;;;;23.17;10.80;;;;;;;11.42;100.00;101097.28;5044004;28;20138;-64
2022/06/07 02:50:42;;;;;;;22.52;10.77;;;;;;;11.39;100.00;101089.34;5041394;28;20469;-64
2022/06/07 02:53:08;;;;;;;21.83;10.57;;;;;;;11.39;100.00;101091.09;5042564;28;20021;-67
2022/06/07 02:55:33;;;;;;;22.42;11.18;;;;;;;11.38;100.00;101091.97;5042601;28;20025;-68
2022/06/07 02:57:59;;;;;;;22.45;10.55;;;;;;;11.38;100.00;101081.41;5040475;28;20040;-67
2022/06/07 03:00:25;;;;;;;22.35;9.70;;;;;;;11.36;100.00;101086.69;5043601;28;20040;-67
2022/06/07 03:02:50;;;;;;;23.77;10.10;;;;;;;11.33;100.00;101081.38;5040648;28;20033;-66
2022/06/07 03:05:16;;;;;;;23.05;9.70;;;;;;;11.30;100.00;101092.81;5044782;28;20024;-67
2022/06/07 03:07:41;;;;;;;21.45;9.38;;;;;;;11.32;100.00;101095.47;5044917;28;20026;-67
2022/06/07 03:10:08;;;;;;;21.27;9.07;;;;;;;11.32;100.00;101100.78;5046101;28;20194;-67
2022/06/07 03:12:34;;;;;;;20.25;9.05;;;;;;;11.31;100.00;101101.63;5045761;28;20484;-68
2022/06/07 03:14:59;;;;;;;21.23;8.90;;;;;;;11.31;100.00;101101.63;5044814;28;20163;-67
2022/06/07 03:17:25;;;;;;;21.00;9.30;;;;;;;11.29;100.00;101106.06;5045856;28;20063;-67
2022/06/07 03:19:51;;;;;;;22.23;9.50;;;;;;;11.27;100.00;101103.41;5043683;28;20063;-67
2022/06/07 03:22:17;;;;;;;22.35;9.40;;;;;;;11.27;100.00;101110.44;5047172;28;20060;-67
2022/06/07 03:24:43;;;;;;;22.70;9.95;;;;;;;11.29;100.00;101111.34;5044419;28;20028;-67
2022/06/07 03:27:08;;;;;;;20.38;8.93;;;;;;;11.29;100.00;101116.63;5045722;28;20021;-67
2022/06/07 03:29:34;;;;;;;21.90;9.20;;;;;;;11.28;100.00;101115.72;5045084;28;20028;-68
2022/06/07 03:31:59;;;;;;;22.05;9.25;;;;;;;11.31;100.00;101115.78;5044826;28;20071;-68
2022/06/07 03:34:25;;;;;;;20.92;8.90;;;;;;;11.31;100.00;101109.56;5046319;28;20175;-68
2022/06/07 03:36:50;;;;;;;21.90;8.57;;;;;;;11.30;100.00;101114.00;5043851;28;20142;-67
2022/06/07 03:39:16;;;;;;;21.25;8.57;;;;;;;11.28;100.00;101106.91;5046674;28;20456;-67
2022/06/07 03:41:41;;;;;;;21.15;8.93;;;;;;;11.26;100.00;101116.63;5043915;28;20049;-68
2022/06/07 03:44:06;;;;;;;22.27;8.98;;;;;;;11.28;100.00;101122.78;5045553;28;20041;-68
2022/06/07 03:46:33;;;;;;;21.25;9.05;;;;;;;11.27;100.00;101127.22;5045233;28;20024;-66
2022/06/07 03:48:59;;;;;;;19.88;8.48;;;;;;;11.27;100.00;101128.97;5043908;28;20033;-68
2022/06/07 03:51:27;;;;;;;20.80;8.80;;;;;;;11.28;100.00;101128.09;5046297;28;20061;-67
2022/06/07 03:53:53;;;;;;;21.48;8.65;;;;;;;11.28;100.00;101126.31;5042874;28;20025;-68
2022/06/07 03:56:21;;;;;;;20.42;8.55;;;;;;;11.29;100.00;101136.03;5046715;28;20025;-68
2022/06/07 03:58:47;;;;;;;21.30;8.98;;;;;;;11.29;100.00;101130.75;5043102;28;20030;-67
2022/06/07 04:01:17;;;;;;;21.35;9.07;;;;;;;11.29;100.00;101129.88;5045705;28;20136;-68
2022/06/07 04:03:45;;;;;;;21.08;8.68;;;;;;;11.30;100.00;101132.53;5043709;28;20046;-67
2022/06/07 04:06:35;;;;;;;20.10;8.70;;;;;;;11.31;100.00;101131.66;5045622;28;20108;-66
2022/06/07 04:09:00;;;;;;;23.58;8.95;;;;;;;11.30;100.00;101137.81;5041418;28;20472;-67
2022/06/07 04:11:27;;;;;;;21.90;8.88;;;;;;;11.32;100.00;101140.47;5045829;28;20091;-67
2022/06/07 04:13:54;;;;;;;21.30;9.02;;;;;;;11.30;100.00;101132.53;5042727;28;20484;-67
2022/06/07 04:16:23;;;;;;;21.13;8.90;;;;;;;11.32;100.00;101140.47;5038363;28;20030;-67
2022/06/07 04:18:49;;;;;;;21.88;8.75;;;;;;;11.34;100.00;101125.47;5038781;28;20021;-68
2022/06/07 04:21:16;;;;;;;21.42;8.77;;;;;;;11.37;100.00;101138.72;5045550;28;20052;-67
2022/06/07 04:23:42;;;;;;;20.95;8.80;;;;;;;11.40;100.00;101138.75;5043370;28;20460;-68
2022/06/07 04:26:09;;;;;;;20.02;8.70;;;;;;;11.41;100.00;101134.34;5044448;28;20030;-66
2022/06/07 04:28:35;;;;;;;21.35;9.20;;;;;;;11.42;100.00;101139.66;5043969;28;20056;-67
2022/06/07 04:31:01;;;;;;;21.27;9.25;;;;;;;11.44;100.00;101137.88;5043713;28;20025;-68
2022/06/07 04:33:26;;;;;;;24.85;8.82;;;;;;;11.45;100.00;101137.00;5045182;28;20377;-67
2022/06/07 04:35:52;;;;;;;21.83;8.90;;;;;;;11.50;100.00;101134.38;5042174;28;20025;-64
2022/06/07 04:38:17;;;;;;;21.98;9.48;;;;;;;11.56;100.00;101136.19;5045548;28;20071;-67
2022/06/07 04:40:44;;;;;;;20.98;8.95;;;;;;;11.61;100.00;101134.44;5042856;28;20503;-67
2022/06/07 04:43:10;;;;;;;20.73;9.27;;;;;;;11.66;100.00;101138.00;5044435;28;20090;-68
2022/06/07 04:45:38;;;;;;;23.77;9.50;;;;;;;11.68;100.00;101141.53;5043671;28;20058;-64
2022/06/07 04:48:05;;;;;;;21.77;9.57;;;;;;;11.72;100.00;101142.44;5043755;28;20108;-67
2022/06/07 04:50:30;;;;;;;21.38;9.75;;;;;;;11.75;100.00;101143.34;5044557;28;20036;-67
2022/06/07 04:52:56;;;;;;;22.90;9.75;;;;;;;11.74;100.00;101141.56;5042472;28;20380;-67
2022/06/07 04:55:21;;;;;;;22.67;10.00;;;;;;;11.73;100.00;101144.22;5045436;28;20161;-67
2022/06/07 04:57:47;;;;;;;22.23;10.20;;;;;;;11.75;100.00;101138.06;5042030;28;20021;-68
2022/06/07 05:00:18;;;;;;;23.00;9.82;;;;;;;11.74;100.00;101140.69;5044852;28;20380;-68
2022/06/07 05:02:45;;;;;;;21.90;9.93;;;;;;;11.74;100.00;101146.00;5042813;28;20048;-67
2022/06/07 05:05:12;;;;;;;23.35;10.75;;;;;;;11.76;100.00;101141.56;5043924;28;20021;-67
2022/06/07 05:07:39;;;;;;;23.65;10.38;;;;;;;11.74;100.00;101146.88;5043257;28;20033;-67
2022/06/07 05:10:10;;;;;;;23.70;10.70;;;;;;;11.75;100.00;101148.66;5043159;28;20061;-68
2022/06/07 05:12:36;;;;;;;22.60;10.85;;;;;;;11.80;100.00;101154.81;5043286;28;20032;-67
2022/06/07 05:15:04;;;;;;;23.05;10.70;;;;;;;11.85;100.00;101157.50;5042464;28;20021;-68
2022/06/07 05:17:30;;;;;;;24.05;11.20;;;;;;;11.92;100.00;101161.06;5044124;28;20029;-67
2022/06/07 05:19:55;;;;;;;23.80;10.98;;;;;;;11.92;100.00;101161.06;5041960;28;20033;-67
2022/06/07 05:22:21;;;;;;;22.98;10.75;;;;;;;11.95;100.00;101169.94;5044730;28;20037;-67
2022/06/07 05:24:46;;;;;;;24.42;10.40;;;;;;;11.98;100.00;101155.81;5041954;28;20038;-68
2022/06/07 05:27:15;;;;;;;21.83;10.10;;;;;;;12.02;100.00;101162.91;5037193;28;20111;-70
2022/06/07 05:29:54;;;;;;;22.85;10.90;;;;;;;12.00;100.00;101160.25;5044439;28;20056;-69
2022/06/07 05:32:19;;;;;;;22.45;10.70;;;;;;;12.01;100.00;101161.13;5040237;28;20022;-68
2022/06/07 05:34:45;;;;;;;21.83;10.30;;;;;;;12.07;100.00;101160.25;5039175;28;20100;-70
2022/06/07 05:37:21;;;;;;;24.38;11.00;;;;;;;12.06;100.00;101163.78;5042153;28;20027;-71
2022/06/07 05:39:46;;;;;;;22.63;10.45;;;;;;;12.10;100.00;101165.56;5036792;28;20060;-70
2022/06/07 05:42:13;;;;;;;22.42;10.80;;;;;;;12.12;100.00;101167.34;5039497;28;20028;-69
2022/06/07 05:44:39;;;;;;;22.52;10.55;;;;;;;12.23;100.00;101167.38;5041908;28;20021;-70
2022/06/07 05:47:05;;;;;;;23.33;10.77;;;;;;;12.26;100.00;101158.53;5044645;28;20117;-70
2022/06/07 05:49:31;;;;;;;22.55;10.65;;;;;;;12.24;100.00;101166.50;5044095;28;20020;-67
2022/06/07 05:51:57;;;;;;;23.17;10.88;;;;;;;12.27;100.00;101162.97;5037949;28;20357;-67
2022/06/07 05:54:23;;;;;;;23.92;10.88;;;;;;;12.30;100.00;101168.28;5038080;28;20112;-69
2022/06/07 05:56:49;;;;;;;23.65;11.23;;;;;;;12.29;100.00;101166.50;5042129;28;20030;-66
2022/06/07 05:59:15;;;;;;;22.13;11.27;;;;;;;12.25;100.00;101170.03;5043985;28;20029;-68
2022/06/07 06:01:40;;;;;;;25.80;11.85;;;;;;;12.28;100.00;101170.06;5039900;28;20037;-68
2022/06/07 06:04:07;;;;;;;23.50;11.88;;;;;;;12.29;100.00;101175.34;5044293;28;20096;-68
2022/06/07 06:06:34;;;;;;;24.67;11.85;;;;;;;12.41;100.00;101166.53;5044711;28;20530;-68
2022/06/07 06:11:43;;;;;;;26.70;13.43;;;;;;;12.77;100.00;101174.53;5039834;28;20126;-66
2022/06/07 06:14:10;;;;;;;26.38;13.55;;;;;;;12.87;100.00;101176.28;5022707;28;20056;-67
2022/06/07 06:16:37;;;;;;;27.83;14.02;;;;;;;12.98;100.00;101171.00;5041250;28;20033;-67
2022/06/07 06:19:03;;;;;;;27.63;13.82;;;;;;;13.04;100.00;101168.34;5043311;28;20017;-67
2022/06/07 06:21:33;;;;;;;26.70;13.50;;;;;;;13.09;100.00;101166.56;5040369;28;20383;-67
2022/06/07 06:23:59;;;;;;;25.73;13.68;;;;;;;13.23;100.00;101164.75;5040834;28;20028;-63
2022/06/07 06:26:26;;;;;;;28.00;14.55;;;;;;;13.24;100.00;101163.03;5043312;28;20032;-69
2022/06/07 06:28:52;;;;;;;27.60;14.02;;;;;;;13.31;100.00;101172.75;5043360;28;20017;-70
2022/06/07 06:31:18;;;;;;;26.45;14.13;;;;;;;13.44;100.00;101163.03;5038872;28;20120;-71
2022/06/07 06:33:49;;;;;;;28.25;15.10;;;;;;;13.59;100.00;101167.41;5040586;28;20045;-69
2022/06/07 06:36:17;;;;;;;26.15;14.52;;;;;;;13.70;100.00;101170.00;5036573;28;20055;-69
2022/06/07 06:38:43;;;;;;;28.45;14.77;;;;;;;13.78;100.00;101162.91;5037860;28;20052;-71
2022/06/07 06:41:22;;;;;;;26.70;14.32;;;;;;;13.80;100.00;101161.09;5042513;28;20673;-67
2022/06/07 06:43:50;;;;;;;26.42;15.20;;;;;;;13.74;100.00;101163.78;5043056;28;20459;-67
2022/06/07 06:46:40;;;;;;;26.88;14.63;;;;;;;13.85;100.00;101175.28;5038514;28;20053;-67
2022/06/07 06:49:06;;;;;;;26.30;15.15;;;;;;;13.85;100.00;101159.34;5043759;28;20037;-67
2022/06/07 06:51:32;;;;;;;28.02;16.05;;;;;;;13.86;100.00;101163.75;5044252;28;20033;-67
2022/06/07 06:53:59;;;;;;;26.55;16.08;;;;;;;13.77;100.00;101164.69;5046732;28;20504;-66
2022/06/07 06:56:25;;;;;;;28.40;15.98;;;;;;;13.84;100.00;101173.50;5042824;28;20172;-65
2022/06/07 06:58:52;;;;;;;27.85;17.20;;;;;;;13.97;100.00;101168.16;5045425;28;20491;-65
2022/06/07 07:01:26;;;;;;;26.90;15.80;;;;;;;14.04;100.00;101178.72;5045901;28;20090;-65
2022/06/07 07:03:51;;;;;;;29.23;17.02;;;;;;;14.16;100.00;101172.47;5045308;28;20039;-65
2022/06/07 07:06:17;;;;;;;28.10;16.60;;;;;;;14.35;100.00;101180.34;5041554;28;20118;-67
2022/06/07 07:08:44;;;;;;;27.20;15.25;;;;;;;14.43;100.00;101175.84;5048964;28;20032;-67
2022/06/07 07:11:15;;;;;;;29.20;16.05;;;;;;;14.33;100.00;101185.69;5047913;28;20029;-64
2022/06/07 07:13:41;;;;;;;27.75;16.67;;;;;;;14.26;100.00;101184.81;5039787;28;20036;-65
2022/06/07 07:16:09;;;;;;;27.23;16.40;;;;;;;14.37;100.00;101192.75;5045739;28;20555;-64
2022/06/07 07:18:35;;;;;;;27.10;14.63;;;;;;;14.41;100.00;101190.94;5043497;28;20376;-64
2022/06/07 07:21:09;;;;;;;26.25;15.90;;;;;;;14.34;100.00;101190.09;5046273;28;20158;-66
2022/06/07 07:23:35;;;;;;;29.27;16.38;;;;;;;14.30;100.00;101181.25;5043594;28;20067;-63
2022/06/07 07:26:06;;;;;;;27.17;15.80;;;;;;;14.48;100.00;101177.59;5048414;28;20025;-67
2022/06/07 07:28:36;;;;;;;27.50;15.10;;;;;;;14.76;100.00;101181.88;5037703;28;20028;-67
2022/06/07 07:31:05;;;;;;;26.25;14.82;;;;;;;15.05;100.00;101191.41;5034942;28;20033;-67
2022/06/07 07:33:31;;;;;;;26.55;15.68;;;;;;;15.15;100.00;101183.31;5034762;28;20434;-66
2022/06/07 07:35:56;;;;;;;26.13;15.73;;;;;;;15.39;100.00;101177.75;5033349;28;20033;-66
2022/06/07 07:38:23;;;;;;;25.65;16.08;;;;;;;15.54;100.00;101182.94;5033922;28;20447;-67
2022/06/07 07:40:49;;;;;;;27.73;16.90;;;;;;;15.66;100.00;101181.91;5038376;28;20143;-65
2022/06/07 07:43:14;;;;;;;27.30;17.02;;;;;;;15.68;100.00;101180.09;5037498;28;20545;-70
2022/06/07 07:45:40;;;;;;;27.92;17.85;;;;;;;15.62;100.00;101175.72;5036491;28;20022;-69
2022/06/07 07:48:05;;;;;;;29.83;19.10;;;;;;;15.66;100.00;101176.59;5037082;28;20625;-71
2022/06/07 07:50:31;;;;;;;30.48;18.90;;;;;;;15.73;100.00;101182.72;5034511;28;20445;-71
2022/06/07 07:52:58;;;;;;;31.02;19.52;;;;;;;15.80;100.00;101171.13;5034900;28;20116;-72
2022/06/07 07:55:24;;;;;;;28.98;18.95;;;;;;;15.80;100.00;101182.69;5038015;28;20029;-68
2022/06/07 07:57:49;;;;;;;31.10;19.55;;;;;;;15.88;100.00;101171.03;5043971;28;20021;-67
2022/06/07 08:00:15;;;;;;;30.70;18.65;;;;;;;15.97;100.00;101177.13;5044048;28;20029;-68
2022/06/07 08:02:40;;;;;;;28.77;18.38;;;;;;;16.20;100.00;101173.28;5044170;28;20033;-68
2022/06/07 08:05:06;;;;;;;27.98;18.42;;;;;;;16.41;100.00;101174.78;5046909;28;20020;-67
2022/06/07 08:07:32;;;;;;;28.77;18.40;;;;;;;16.35;100.00;101183.75;5045571;28;20078;-62
2022/06/07 08:10:00;;;;;;;28.33;19.13;;;;;;;16.37;100.00;101179.25;5045253;28;20017;-62
2022/06/07 08:12:26;;;;;;;28.35;18.30;;;;;;;16.34;100.00;101167.75;5041598;28;20495;-64
2022/06/07 08:14:51;;;;;;;28.67;19.55;;;;;;;16.49;100.00;101174.66;5043277;28;20476;-63
2022/06/07 08:17:17;;;;;;;29.55;18.80;;;;;;;16.67;100.00;101177.03;5042102;28;20046;-63
2022/06/07 08:19:42;;;;;;;27.02;17.80;;;;;;;16.89;100.00;101174.94;5045848;28;20067;-64
2022/06/07 08:22:09;;;;;;;28.02;18.83;;;;;;;17.27;100.00;101175.19;5044888;28;20067;-63
2022/06/07 08:24:35;;;;;;;30.75;21.13;;;;;;;17.27;100.00;101172.50;5045699;28;20025;-64
2022/06/07 08:27:00;;;;;;;29.33;21.77;;;;;;;17.06;100.00;101177.31;5046149;28;20490;-63
2022/06/07 08:29:25;;;;;;;30.40;21.80;;;;;;;17.14;100.00;101176.28;5043577;28;20044;-64
2022/06/07 08:31:51;;;;;;;30.60;22.48;;;;;;;16.94;100.00;101182.88;5043888;28;20030;-64
2022/06/07 08:39:44;;;;;;;31.15;23.02;;;;;;;17.10;100.00;101183.50;5043098;28;20533;-63
2022/06/07 08:42:50;;;;;;;29.05;21.52;;;;;;;17.10;100.00;101177.28;5037414;28;20107;-64
2022/06/07 08:45:35;;;;;;;27.88;20.10;;;;;;;17.26;100.00;101170.75;5032606;28;20076;-63
2022/06/07 08:48:10;;;;;;;27.90;19.83;;;;;;;17.31;100.00;101165.31;5031469;28;20195;-64
2022/06/07 08:50:40;;;;;;;31.17;24.08;;;;;;;17.59;100.00;101171.00;5032149;28;20045;-64
2022/06/07 08:53:18;;;;;;;30.73;23.25;;;;;;;17.85;100.00;101166.91;5033592;28;20045;-63
2022/06/07 08:55:53;;;;;;;29.58;21.27;;;;;;;18.03;100.00;101171.91;5033816;28;20542;-63
2022/06/07 08:58:19;;;;;;;31.15;21.90;;;;;;;18.14;100.00;101168.13;5034842;28;20491;-63
2022/06/07 09:00:49;;;;;;;28.30;20.98;;;;;;;18.18;100.00;101172.50;5033997;28;20068;-62
2022/06/07 09:03:52;;;;;;;29.65;22.77;;;;;;;18.30;100.00;101177.56;5032325;28;20064;-64
2022/06/07 09:06:24;;;;;;;29.67;22.38;;;;;;;18.31;100.00;101170.44;5033526;28;20033;-63
2022/06/07 09:08:57;;;;;;;29.58;22.95;;;;;;;18.30;100.00;101177.56;5034063;28;20428;-64
2022/06/07 09:14:38;;;;;;;29.42;21.70;;;;;;;18.37;100.00;101163.13;4990595;28;20052;-64
2022/06/07 09:17:13;;;;;;;29.42;21.90;;;;;;;18.65;100.00;101159.81;4990294;28;20129;-68
2022/06/07 09:19:39;;;;;;;28.88;21.23;;;;;;;18.87;100.00;101172.69;4977419;28;20429;-66
2022/06/07 09:22:15;;;;;;;27.65;20.38;;;;;;;19.15;100.00;101163.03;4970127;28;20050;-65
2022/06/07 09:24:49;;;;;;;27.15;19.48;;;;;;;19.09;100.00;101165.88;4968655;28;20123;-64
2022/06/07 09:27:20;;;;;;;26.30;18.15;;;;;;;18.97;100.00;101176.91;4970053;28;20150;-66
2022/06/07 09:30:02;;;;;;;26.25;17.48;;;;;;;19.21;100.00;101158.44;4971436;28;20089;-65
2022/06/07 09:32:33;;;;;;;25.70;16.63;;;;;;;19.33;100.00;101158.97;4969351;28;20046;-66
2022/06/07 09:35:01;;;;;;;23.75;15.23;;;;;;;19.16;100.00;101156.78;4967831;28;20623;-67
2022/06/07 09:37:30;;;;;;;24.88;15.55;;;;;;;19.17;100.00;101158.50;4970684;28;20150;-66
2022/06/07 09:40:10;;;;;;;22.92;14.10;;;;;;;19.56;100.00;101156.59;4970904;28;20038;-64
2022/06/07 09:42:36;;;;;;;23.52;13.77;;;;;;;19.67;100.00;101152.69;4970773;28;20231;-63
2022/06/07 09:45:17;;;;;;;24.98;14.82;;;;;;;19.62;100.00;101154.63;5001996;28;20037;-65
2022/06/07 09:47:43;;;;;;;24.20;14.20;;;;;;;19.47;100.00;101155.94;5040833;28;20468;-65
2022/06/07 09:50:15;;;;;;;23.73;13.98;;;;;;;19.30;100.00;101153.72;5043837;28;20347;-67
2022/06/07 09:52:41;;;;;;;24.75;15.65;;;;;;;19.54;100.00;101155.75;5034578;28;20472;-66
2022/06/07 09:55:22;;;;;;;24.00;14.75;;;;;;;20.00;100.00;101138.38;5043087;28;20039;-67
2022/06/07 09:58:04;;;;;;;23.45;13.68;;;;;;;19.66;100.00;101158.09;5031478;28;20044;-70
2022/06/07 10:00:36;;;;;;;22.67;14.20;;;;;;;19.44;100.00;101153.34;5034063;28;20021;-70
2022/06/07 10:03:13;;;;;;;24.35;15.30;;;;;;;19.23;100.00;101143.22;5034351;28;20018;-69
2022/06/07 10:05:51;;;;;;;23.42;14.18;;;;;;;19.16;100.00;101145.16;5033747;28;20108;-67
2022/06/07 10:08:20;;;;;;;22.35;13.63;;;;;;;19.56;100.00;101144.06;5041914;28;20029;-66
2022/06/07 10:10:59;;;;;;;23.20;13.65;;;;;;;19.88;100.00;101139.63;5040975;28;20105;-67
2022/06/07 10:13:49;;;;;;;24.63;13.93;;;;;;;19.76;100.00;101151.56;5042094;28;20112;-66
2022/06/07 10:16:39;;;;;;;23.02;13.75;;;;;;;19.18;100.00;101137.97;5047414;28;20027;-67
2022/06/07 10:19:08;;;;;;;22.20;12.45;;;;;;;20.11;100.00;101130.88;5045628;28;20028;-66
2022/06/07 10:21:33;;;;;;;21.77;11.90;;;;;;;20.78;98.50;101140.41;5044728;28;20060;-66
2022/06/07 10:24:12;;;;;;;23.17;12.07;;;;;;;21.88;91.97;101142.75;5047851;28;20479;-66
2022/06/07 10:27:03;;;;;;;24.13;11.50;;;;;;;22.39;88.12;101137.25;5048267;28;20283;-63
2022/06/07 10:29:37;;;;;;;20.05;9.18;;;;;;;22.11;77.78;101139.19;5047547;28;20592;-63
2022/06/07 10:32:22;;;;;;;19.75;9.35;;;;;;;20.88;83.93;101131.09;5055340;28;20083;-63
2022/06/07 10:34:58;;;;;;;20.30;9.07;;;;;;;19.81;90.04;101127.31;5047449;28;20053;-63
2022/06/07 10:37:44;;;;;;;22.25;13.65;;;;;;;19.47;96.56;101128.22;5042585;28;20079;-64
2022/06/07 10:40:41;;;;;;;23.40;13.77;;;;;;;19.57;96.82;101126.19;5045729;28;20025;-63
2022/06/07 10:43:23;;;;;;;21.10;11.70;;;;;;;19.34;94.11;101130.41;5039187;28;20129;-63
2022/06/07 10:45:51;;;;;;;23.25;13.55;;;;;;;19.33;95.18;101129.50;5036715;28;20443;-63
2022/06/07 10:48:40;;;;;;;22.58;13.40;;;;;;;21.05;90.96;101129.63;5038063;28;20037;-63
2022/06/07 10:54:12;;;;;;;19.90;8.68;;;;;;;24.79;67.68;101135.47;5039335;28;20534;-64
2022/06/07 10:56:45;;;;;;;19.55;9.38;;;;;;;24.95;60.00;101127.44;5040225;28;20033;-64
2022/06/07 10:59:20;;;;;;;21.88;9.05;;;;;;;24.57;63.60;101124.81;5034902;28;20038;-66
2022/06/07 11:01:50;;;;;;;20.63;8.70;;;;;;;24.48;61.50;101118.03;5039165;28;20057;-65
2022/06/07 11:10:45;;;;;;;18.92;7.47;;;;;;;21.57;75.25;101116.16;4933310;29;20099;-65
2022/06/07 11:13:16;;;;;;;17.35;6.22;;;;;;;21.93;73.54;101112.97;4934588;29;20068;-64
2022/06/07 11:16:08;;;;;;;15.10;5.38;;;;;;;23.31;66.30;101111.81;4931983;29;20044;-64
2022/06/07 11:18:34;;;;;;;14.20;5.28;;;;;;;23.05;64.53;101117.41;4937366;29;20050;-64
2022/06/07 11:21:02;;;;;;;18.23;5.40;;;;;;;22.54;67.64;101109.69;4954317;29;20027;-65
2022/06/07 11:23:32;;;;;;;17.00;5.40;;;;;;;22.17;64.43;101115.66;4953896;29;20513;-64
2022/06/07 11:26:16;;;;;;;15.70;5.03;;;;;;;22.03;65.96;101121.56;4954135;28;20375;-65
2022/06/07 11:28:41;;;;;;;14.52;4.80;;;;;;;21.92;69.29;101112.09;4950757;28;20054;-63
2022/06/07 11:31:24;;;;;;;15.27;4.90;;;;;;;21.92;67.10;101122.88;4954292;29;20490;-64
2022/06/07 11:33:53;;;;;;;15.48;4.53;;;;;;;22.76;64.11;101106.06;4953087;29;20403;-64
2022/06/07 11:36:24;;;;;;;13.05;4.13;;;;;;;23.58;62.64;101107.91;4951358;29;20031;-64
2022/06/07 11:41:39;;;;;;;15.52;4.55;;;;;;;21.98;66.61;101121.75;4967821;28;20175;-65
2022/06/07 11:44:10;;;;;;;14.75;4.55;;;;;;;21.88;68.72;101121.22;4991020;28;20112;-65